createdAt,value
2018-01-19T00:00:04.285Z,22.87
2018-01-19T00:02:05.260Z,15.67
2018-01-19T00:04:06.229Z,24.10
2018-01-19T00:06:07.236Z,13.83
2018-01-19T00:08:08.237Z,18.20
2018-01-19T00:10:09.198Z,22.23
2018-01-19T00:12:11.105Z,29.33
2018-01-19T00:14:12.076Z,22.43
2018-01-19T00:16:13.051Z,26.13
2018-01-19T00:18:14.100Z,21.90
2018-01-19T00:20:15.130Z,34.07
2018-01-19T00:22:16.087Z,15.30
2018-01-19T00:24:17.048Z,26.00
2018-01-19T00:26:17.996Z,24.43
2018-01-19T00:28:19.056Z,24.20
2018-01-19T00:30:20.034Z,19.63
2018-01-19T00:32:20.992Z,38.93
2018-01-19T00:34:21.966Z,23.60
2018-01-19T00:36:22.912Z,20.97
2018-01-19T00:38:23.860Z,31.97
2018-01-19T00:40:25.715Z,24.10
2018-01-19T00:42:26.687Z,19.63
2018-01-19T00:44:27.635Z,21.87
2018-01-19T00:46:28.628Z,34.40
2018-01-19T00:48:29.573Z,40.00
2018-01-19T00:50:31.127Z,30.97
2018-01-19T00:52:32.879Z,22.30
2018-01-19T00:54:33.851Z,34.70
2018-01-19T00:56:34.819Z,26.63
2018-01-19T00:58:35.773Z,24.33
2018-01-19T01:00:36.755Z,32.90
2018-01-19T01:02:37.735Z,25.13
2018-01-19T01:04:39.492Z,37.63
2018-01-19T01:06:41.210Z,22.63
2018-01-19T01:08:42.163Z,34.93
2018-01-19T01:10:43.139Z,32.50
2018-01-19T01:12:44.198Z,27.60
2018-01-19T01:14:45.188Z,28.87
2018-01-19T01:16:46.134Z,26.50
2018-01-19T01:18:47.248Z,37.77
2018-01-19T01:20:49.280Z,34.40
2018-01-19T01:22:50.295Z,25.90
2018-01-19T01:24:51.260Z,25.33
2018-01-19T01:26:52.262Z,28.90
2018-01-19T01:28:53.213Z,32.70
2018-01-19T01:30:54.271Z,25.43
2018-01-19T01:32:55.230Z,27.83
2018-01-19T01:34:56.955Z,25.67
2018-01-19T01:36:58.032Z,33.83
2018-01-19T01:38:58.975Z,36.53
2018-01-19T01:40:59.935Z,31.40
2018-01-19T01:43:00.908Z,38.87
2018-01-19T01:45:01.886Z,26.80
2018-01-19T01:47:02.987Z,34.50
2018-01-19T01:49:10.007Z,34.30
2018-01-19T01:51:10.983Z,25.17
2018-01-19T01:53:12.049Z,27.40
2018-01-19T01:55:12.989Z,27.47
2018-01-19T01:57:13.947Z,33.70
2018-01-19T01:59:14.998Z,28.87
2018-01-19T02:01:15.940Z,32.67
2018-01-19T02:03:18.318Z,26.67
2018-01-19T02:05:19.295Z,38.63
2018-01-19T02:07:20.245Z,26.83
2018-01-19T02:09:21.336Z,47.03
2018-01-19T02:11:22.382Z,40.87
2018-01-19T02:13:23.328Z,38.07
2018-01-19T02:15:24.478Z,36.60
2018-01-19T02:17:25.442Z,37.17
2018-01-19T02:19:26.485Z,44.83
2018-01-19T02:21:28.040Z,37.57
2018-01-19T02:23:29.096Z,35.10
2018-01-19T02:25:30.020Z,34.60
2018-01-19T02:27:31.764Z,40.63
2018-01-19T02:29:32.723Z,37.93
2018-01-19T02:31:33.687Z,37.70
2018-01-19T02:33:34.635Z,34.27
2018-01-19T02:35:35.646Z,50.50
2018-01-19T02:37:36.583Z,35.97
2018-01-19T02:39:38.484Z,31.60
2018-01-19T02:41:39.499Z,28.77
2018-01-19T02:43:40.496Z,35.33
2018-01-19T02:45:41.464Z,32.97
2018-01-19T02:47:42.665Z,35.53
2018-01-19T02:49:43.646Z,40.63
2018-01-19T02:51:44.602Z,41.27
2018-01-19T02:53:46.311Z,35.13
2018-01-19T02:55:47.336Z,39.90
2018-01-19T02:57:48.282Z,45.17
2018-01-19T02:59:50.259Z,39.50
2018-01-19T03:01:51.965Z,47.00
2018-01-19T03:03:52.947Z,38.63
2018-01-19T03:05:54.398Z,40.30
2018-01-19T03:07:55.471Z,32.97
2018-01-19T03:09:56.428Z,56.63
2018-01-19T03:11:57.466Z,42.90
2018-01-19T03:13:58.612Z,40.73
2018-01-19T03:15:59.823Z,38.97
2018-01-19T03:18:00.831Z,47.30
2018-01-19T03:20:01.819Z,42.80
2018-01-19T03:22:02.843Z,42.13
2018-01-19T03:24:03.951Z,41.40
2018-01-19T03:26:04.965Z,35.00
2018-01-19T03:28:05.944Z,39.53
2018-01-19T03:30:06.933Z,44.07
2018-01-19T03:32:07.931Z,33.77
2018-01-19T03:34:08.864Z,40.90
2018-01-19T03:36:11.103Z,32.17
2018-01-19T03:38:12.260Z,45.10
2018-01-19T03:40:13.249Z,33.73
2018-01-19T03:42:15.063Z,45.73
2018-01-19T03:44:16.018Z,43.33
2018-01-19T03:46:17.042Z,33.37
2018-01-19T03:48:18.827Z,36.57
2018-01-19T03:50:19.906Z,43.08
2018-01-19T03:52:20.850Z,37.47
2018-01-19T03:54:21.888Z,40.13
2018-01-19T03:56:22.864Z,36.67
2018-01-19T03:58:24.664Z,40.23
2018-01-19T04:00:26.492Z,36.93
2018-01-19T04:02:27.459Z,38.13
2018-01-19T04:04:28.404Z,41.37
2018-01-19T04:06:30.120Z,36.90
2018-01-19T04:08:31.387Z,50.37
2018-01-19T04:10:33.216Z,40.47
2018-01-19T04:12:34.226Z,36.17
2018-01-19T04:14:36.544Z,50.70
2018-01-19T04:16:38.006Z,54.27
2018-01-19T04:18:39.207Z,46.00
2018-01-19T04:20:40.983Z,38.07
2018-01-19T04:22:42.284Z,43.47
2018-01-19T04:24:43.232Z,39.80
2018-01-19T04:26:44.203Z,34.43
2018-01-19T04:28:45.230Z,37.30
2018-01-19T04:30:46.371Z,40.60
2018-01-19T04:32:48.250Z,35.73
2018-01-19T04:34:49.301Z,46.03
2018-01-19T04:36:50.719Z,45.77
2018-01-19T04:38:53.488Z,45.73
2018-01-19T04:40:54.505Z,38.90
2018-01-19T04:42:55.499Z,40.87
2018-01-19T04:44:57.200Z,41.23
2018-01-19T04:46:58.317Z,42.60
2018-01-19T04:48:59.376Z,52.87
2018-01-19T04:51:01.080Z,37.17
2018-01-19T04:53:02.244Z,34.17
2018-01-19T04:55:05.959Z,42.40
2018-01-19T04:57:06.997Z,38.27
2018-01-19T04:59:07.947Z,32.33
2018-01-19T05:01:08.921Z,34.07
2018-01-19T05:03:09.891Z,32.20
2018-01-19T05:05:10.864Z,43.17
2018-01-19T05:07:11.850Z,37.43
2018-01-19T05:09:12.870Z,32.43
2018-01-19T05:11:13.912Z,49.17
2018-01-19T05:13:15.079Z,46.17
2018-01-19T05:15:16.115Z,47.53
2018-01-19T05:17:17.947Z,35.77
2018-01-19T05:19:18.912Z,55.93
2018-01-19T05:21:19.895Z,42.00
2018-01-19T05:23:20.843Z,39.90
2018-01-19T05:25:21.805Z,47.30
2018-01-19T05:27:22.752Z,48.67
2018-01-19T05:29:23.751Z,34.87
2018-01-19T05:31:24.766Z,36.73
2018-01-19T05:33:25.725Z,32.67
2018-01-19T05:35:26.670Z,45.27
2018-01-19T05:37:27.619Z,40.23
2018-01-19T05:39:28.589Z,38.70
2018-01-19T05:41:29.535Z,46.70
2018-01-19T05:43:30.484Z,48.73
2018-01-19T05:45:31.419Z,53.13
2018-01-19T05:47:32.355Z,46.37
2018-01-19T05:49:33.291Z,46.50
2018-01-19T05:51:34.967Z,41.50
2018-01-19T05:53:35.973Z,61.42
2018-01-19T05:55:37.046Z,72.00
2018-01-19T05:57:38.040Z,53.70
2018-01-19T05:59:38.984Z,47.23
2018-01-19T06:01:40.675Z,70.93
2018-01-19T06:03:41.618Z,51.70
2018-01-19T06:05:42.584Z,55.73
2018-01-19T06:07:43.594Z,58.10
2018-01-19T06:09:44.541Z,57.17
2018-01-19T06:11:45.506Z,57.97
2018-01-19T06:13:46.568Z,56.13
2018-01-19T06:15:47.531Z,52.33
2018-01-19T06:17:48.575Z,59.43
2018-01-19T06:19:49.718Z,49.60
2018-01-19T06:21:50.776Z,51.83
2018-01-19T06:23:51.743Z,63.47
2018-01-19T06:25:52.663Z,56.97
2018-01-19T06:27:53.625Z,58.07
2018-01-19T06:29:54.567Z,82.27
2018-01-19T06:31:55.499Z,66.87
2018-01-19T06:33:56.450Z,83.10
2018-01-19T06:35:57.443Z,69.40
2018-01-19T06:37:58.404Z,94.30
2018-01-19T06:39:59.357Z,101.77
2018-01-19T06:42:00.314Z,99.70
2018-01-19T06:44:01.283Z,103.30
2018-01-19T06:46:02.235Z,82.87
2018-01-19T06:48:03.239Z,101.40
2018-01-19T06:50:04.969Z,127.73
2018-01-19T06:52:05.986Z,104.20
2018-01-19T06:54:06.944Z,118.43
2018-01-19T06:56:08.677Z,110.73
2018-01-19T06:58:09.781Z,98.47
2018-01-19T07:00:10.859Z,112.53
2018-01-19T07:02:11.806Z,113.13
2018-01-19T07:04:12.772Z,120.93
2018-01-19T07:06:13.759Z,130.33
2018-01-19T07:08:14.728Z,142.43
2018-01-19T07:10:15.719Z,97.53
2018-01-19T07:12:17.846Z,105.03
2018-01-19T07:14:18.803Z,115.07
2018-01-19T07:16:19.754Z,120.63
2018-01-19T07:18:20.711Z,110.83
2018-01-19T07:20:21.668Z,104.20
2018-01-19T07:22:22.639Z,99.37
2018-01-19T07:24:23.714Z,113.63
2018-01-19T07:26:24.697Z,115.90
2018-01-19T07:28:26.375Z,111.73
2018-01-19T07:30:27.323Z,125.57
2018-01-19T07:32:29.013Z,125.30
2018-01-19T07:34:30.002Z,119.30
2018-01-19T07:36:30.949Z,96.43
2018-01-19T07:38:31.892Z,108.53
2018-01-19T07:40:32.831Z,115.80
2018-01-19T07:42:33.833Z,102.33
2018-01-19T07:44:34.845Z,100.10
2018-01-19T07:46:35.804Z,106.80
2018-01-19T07:48:36.767Z,97.60
2018-01-19T07:50:37.730Z,107.60
2018-01-19T07:52:38.699Z,94.07
2018-01-19T07:54:39.647Z,102.17
2018-01-19T07:56:40.628Z,117.80
2018-01-19T07:58:41.590Z,124.17
2018-01-19T08:00:42.563Z,101.87
2018-01-19T08:02:43.551Z,93.83
2018-01-19T08:04:44.481Z,110.90
2018-01-19T08:06:46.176Z,109.93
2018-01-19T08:08:47.149Z,122.20
2018-01-19T08:10:48.087Z,133.27
2018-01-19T08:12:49.060Z,104.07
2018-01-19T08:14:50.012Z,113.83
2018-01-19T08:16:50.965Z,121.00
2018-01-19T08:18:51.952Z,112.93
2018-01-19T08:20:52.907Z,108.53
2018-01-19T08:22:53.867Z,122.10
2018-01-19T08:24:54.822Z,137.97
2018-01-19T08:26:55.754Z,126.20
2018-01-19T08:28:56.699Z,126.50
2018-01-19T08:30:57.670Z,119.37
2018-01-19T08:32:58.608Z,127.10
2018-01-19T08:34:59.583Z,109.47
2018-01-19T08:37:00.550Z,117.80
2018-01-19T08:39:01.508Z,125.77
2018-01-19T08:41:02.454Z,116.97
2018-01-19T08:43:03.395Z,133.17
2018-01-19T08:45:04.356Z,115.87
2018-01-19T08:47:05.311Z,117.83
2018-01-19T08:49:07.287Z,110.50
2018-01-19T08:51:08.259Z,119.60
2018-01-19T08:53:09.232Z,115.27
2018-01-19T08:55:10.231Z,105.57
2018-01-19T08:57:11.242Z,119.17
2018-01-19T08:59:12.203Z,109.80
2018-01-19T09:01:13.159Z,106.97
2018-01-19T09:03:14.175Z,128.07
2018-01-19T09:05:15.143Z,102.57
2018-01-19T09:07:16.101Z,114.60
2018-01-19T09:09:17.069Z,96.97
2018-01-19T09:11:18.032Z,122.57
2018-01-19T09:13:19.008Z,108.00
2018-01-19T09:15:19.972Z,109.73
2018-01-19T09:17:21.679Z,117.53
2018-01-19T09:19:22.651Z,101.37
2018-01-19T09:21:23.606Z,109.77
2018-01-19T09:23:24.595Z,105.53
2018-01-19T09:25:25.555Z,94.43
2018-01-19T09:27:26.515Z,108.73
2018-01-19T09:29:27.483Z,115.13
2018-01-19T09:31:29.184Z,115.90
2018-01-19T09:33:30.127Z,126.87
2018-01-19T09:35:31.823Z,126.47
2018-01-19T09:37:32.796Z,123.40
2018-01-19T09:39:33.758Z,116.63
2018-01-19T09:41:34.718Z,103.33
2018-01-19T09:43:35.703Z,129.17
2018-01-19T09:45:36.635Z,119.47
2018-01-19T09:47:37.580Z,113.80
2018-01-19T09:49:38.515Z,110.50
2018-01-19T09:51:39.459Z,83.23
2018-01-19T09:53:40.399Z,96.50
2018-01-19T09:55:42.324Z,97.93
2018-01-19T09:57:43.255Z,107.67
2018-01-19T09:59:44.210Z,91.20
2018-01-19T10:01:45.160Z,95.27
2018-01-19T10:03:46.134Z,95.83
2018-01-19T10:05:47.095Z,79.30
2018-01-19T10:07:48.052Z,85.27
2018-01-19T10:09:49.007Z,81.10
2018-01-19T10:11:49.995Z,81.40
2018-01-19T10:13:50.954Z,81.23
2018-01-19T10:15:51.912Z,78.67
2018-01-19T10:17:52.847Z,69.20
2018-01-19T10:19:53.826Z,88.83
2018-01-19T10:21:55.056Z,71.30
2018-01-19T10:23:56.040Z,79.90
2018-01-19T10:25:56.991Z,79.33
2018-01-19T10:27:57.948Z,74.93
2018-01-19T10:29:58.923Z,67.73
2018-01-19T10:31:59.900Z,74.23
2018-01-19T10:34:00.852Z,61.50
2018-01-19T10:36:02.599Z,61.10
2018-01-19T10:38:03.543Z,62.10
2018-01-19T10:40:04.512Z,60.30
2018-01-19T10:42:05.451Z,52.50
2018-01-19T10:44:06.491Z,59.73
2018-01-19T10:46:07.456Z,49.17
2018-01-19T10:48:08.448Z,44.50
2018-01-19T10:50:09.424Z,54.83
2018-01-19T10:52:10.399Z,52.97
2018-01-19T10:54:11.388Z,48.53
2018-01-19T10:56:12.421Z,55.60
2018-01-19T10:58:16.855Z,47.63
2018-01-19T11:00:17.862Z,43.47
2018-01-19T11:02:18.898Z,45.07
2018-01-19T11:04:19.845Z,45.67
2018-01-19T11:06:21.568Z,43.30
2018-01-19T11:08:22.500Z,40.80
2018-01-19T11:10:23.460Z,45.07
2018-01-19T11:12:24.424Z,42.80
2018-01-19T11:14:25.381Z,45.67
2018-01-19T11:16:26.337Z,45.40
2018-01-19T11:18:27.414Z,41.50
2018-01-19T11:20:28.438Z,51.10
2018-01-19T11:22:29.603Z,41.67
2018-01-19T11:24:31.400Z,38.10
2018-01-19T11:26:32.370Z,43.50
2018-01-19T11:28:37.297Z,47.53
2018-01-19T11:30:38.379Z,44.93
2018-01-19T11:32:39.335Z,39.23
2018-01-19T11:34:40.323Z,38.47
2018-01-19T11:36:41.307Z,41.23
2018-01-19T11:38:42.384Z,38.70
2018-01-19T11:40:43.467Z,32.43
2018-01-19T11:42:44.503Z,33.20
2018-01-19T11:44:45.463Z,35.50
2018-01-19T11:46:46.476Z,31.30
2018-01-19T11:48:47.472Z,31.57
2018-01-19T11:50:48.459Z,34.53
2018-01-19T11:52:49.571Z,26.30
2018-01-19T11:54:50.655Z,24.10
2018-01-19T11:56:51.953Z,32.33
2018-01-19T11:58:52.951Z,32.93
2018-01-19T12:00:54.531Z,29.87
2018-01-19T12:02:55.572Z,30.10
2018-01-19T12:05:03.116Z,29.77
2018-01-19T12:07:04.022Z,36.37
2018-01-19T12:09:05.186Z,32.97
2018-01-19T12:11:06.187Z,27.80
2018-01-19T12:13:07.304Z,30.40
2018-01-19T12:15:08.321Z,35.03
2018-01-19T12:17:09.534Z,25.70
2018-01-19T12:19:10.566Z,29.03
2018-01-19T12:21:11.584Z,29.17
2018-01-19T12:23:12.641Z,34.67
2018-01-19T12:25:13.660Z,34.00
2018-01-19T12:27:14.767Z,35.90
2018-01-19T12:29:15.752Z,41.27
2018-01-19T12:31:16.755Z,36.17
2018-01-19T12:33:18.369Z,38.00
2018-01-19T12:35:25.533Z,31.87
2018-01-19T12:37:27.027Z,31.23
2018-01-19T12:39:29.496Z,36.13
2018-01-19T12:41:30.557Z,27.67
2018-01-19T12:43:31.742Z,32.23
2018-01-19T12:45:33.060Z,26.57
2018-01-19T12:47:34.604Z,32.67
2018-01-19T12:49:36.095Z,25.60
2018-01-19T12:51:37.189Z,29.47
2018-01-19T12:53:38.157Z,31.53
2018-01-19T12:55:39.845Z,29.03
2018-01-19T12:57:40.891Z,29.23
2018-01-19T12:59:42.242Z,33.03
2018-01-19T13:01:43.552Z,35.63
2018-01-19T13:03:44.582Z,38.50
2018-01-19T13:05:45.547Z,33.37
2018-01-19T13:07:46.964Z,33.37
2018-01-19T13:09:48.032Z,36.33
2018-01-19T13:11:49.004Z,40.67
2018-01-19T13:13:50.050Z,35.83
2018-01-19T13:15:51.151Z,31.10
2018-01-19T13:17:52.127Z,26.63
2018-01-19T13:19:53.103Z,30.43
2018-01-19T13:21:54.097Z,38.27
2018-01-19T13:23:55.072Z,31.07
2018-01-19T13:25:56.016Z,34.90
2018-01-19T13:27:56.950Z,32.40
2018-01-19T13:29:57.892Z,36.57
2018-01-19T13:31:59.205Z,41.13
2018-01-19T13:34:00.328Z,34.97
2018-01-19T13:36:01.429Z,42.47
2018-01-19T13:38:02.563Z,33.60
2018-01-19T13:40:03.640Z,33.20
2018-01-19T13:42:04.706Z,30.23
2018-01-19T13:44:05.818Z,41.53
2018-01-19T13:46:06.806Z,35.47
2018-01-19T13:48:07.808Z,35.73
2018-01-19T13:50:08.844Z,46.53
2018-01-19T13:52:09.951Z,33.90
2018-01-19T13:54:10.972Z,39.93
2018-01-19T13:56:11.964Z,33.30
2018-01-19T13:58:12.920Z,38.53
2018-01-19T14:00:14.127Z,32.80
2018-01-19T14:02:15.212Z,42.57
2018-01-19T14:04:16.297Z,41.10
2018-01-19T14:06:17.614Z,34.50
2018-01-19T14:08:18.575Z,31.80
2018-01-19T14:10:20.093Z,34.80
2018-01-19T14:12:21.101Z,33.17
2018-01-19T14:14:22.137Z,36.17
2018-01-19T14:16:23.920Z,35.53
2018-01-19T14:18:25.116Z,40.70
2018-01-19T14:20:26.341Z,41.43
2018-01-19T14:22:27.393Z,32.50
2018-01-19T14:24:28.409Z,31.20
2018-01-19T14:26:30.181Z,36.47
2018-01-19T14:28:31.211Z,38.80
2018-01-19T14:30:32.189Z,24.20
2018-01-19T14:32:36.017Z,35.73
2018-01-19T14:34:37.716Z,29.03
2018-01-19T14:36:38.729Z,26.87
2018-01-19T14:38:39.700Z,23.73
2018-01-19T14:40:41.100Z,32.20
2018-01-19T14:42:42.156Z,25.23
2018-01-19T14:44:43.974Z,22.07
2018-01-19T14:46:45.100Z,26.10
2018-01-19T14:48:46.220Z,19.93
2018-01-19T14:50:50.353Z,22.43
2018-01-19T14:52:51.481Z,22.20
2018-01-19T14:57:09.857Z,18.60
2018-01-19T14:59:11.039Z,17.10
2018-01-19T15:03:52.182Z,19.60
2018-01-19T15:05:53.775Z,22.60
2018-01-19T15:07:54.773Z,19.30
2018-01-19T15:09:56.569Z,21.77
2018-01-19T15:11:57.593Z,22.97
2018-01-19T15:13:58.598Z,20.50
2018-01-19T15:15:59.584Z,19.17
2018-01-19T15:18:00.746Z,20.87
2018-01-19T15:20:23.163Z,24.33
2018-01-19T15:22:24.216Z,18.83
2018-01-19T15:24:25.844Z,19.60
2018-01-19T15:26:26.988Z,20.87
2018-01-19T15:28:28.878Z,23.67
2018-01-19T15:30:33.795Z,21.87
2018-01-19T15:32:34.780Z,20.33
2018-01-19T15:34:37.205Z,23.03
2018-01-19T15:36:38.286Z,36.00
2018-01-19T15:38:39.248Z,20.17
2018-01-19T15:40:40.252Z,34.00
2018-01-19T15:42:41.215Z,19.07
2018-01-19T15:44:42.862Z,20.87
2018-01-19T15:46:44.737Z,22.20
2018-01-19T15:48:46.632Z,21.80
2018-01-19T15:50:59.853Z,25.77
2018-01-19T15:53:03.448Z,29.33
2018-01-19T15:55:07.840Z,25.40
2018-01-19T15:57:09.525Z,20.57
2018-01-19T15:59:10.599Z,18.77
2018-01-19T16:01:11.620Z,20.97
2018-01-19T16:03:12.648Z,15.20
2018-01-19T16:05:13.657Z,21.20
2018-01-19T16:07:17.747Z,16.63
2018-01-19T16:09:18.794Z,25.73
2018-01-19T16:11:21.735Z,26.60
2018-01-19T16:13:22.894Z,17.70
2018-01-19T16:15:23.947Z,16.93
2018-01-19T16:17:24.940Z,17.90
2018-01-19T16:19:26.765Z,20.87
2018-01-19T16:21:27.811Z,19.37
2018-01-19T16:23:29.814Z,16.67
2018-01-19T16:25:30.895Z,16.93
2018-01-19T16:27:31.923Z,22.07
2018-01-19T16:32:11.341Z,17.97
2018-01-19T16:34:12.751Z,23.90
2018-01-19T16:36:13.793Z,18.67
2018-01-19T16:38:15.682Z,21.47
2018-01-19T16:40:16.728Z,28.00
2018-01-19T16:42:20.800Z,17.10
2018-01-19T16:44:22.560Z,19.93
2018-01-19T16:46:23.555Z,23.83
2018-01-19T16:48:24.564Z,18.03
2018-01-19T16:50:25.532Z,21.67
2018-01-19T16:52:35.035Z,22.60
2018-01-19T16:54:36.331Z,22.67
2018-01-19T16:56:37.473Z,18.07
2018-01-19T16:58:38.514Z,22.97
2018-01-19T17:00:39.672Z,21.13
2018-01-19T17:02:40.887Z,22.30
2018-01-19T17:04:41.936Z,24.97
2018-01-19T17:06:42.896Z,21.67
2018-01-19T17:08:44.217Z,25.47
2018-01-19T17:10:45.367Z,19.50
2018-01-19T17:12:46.686Z,37.40
2018-01-19T17:14:48.255Z,28.47
2018-01-19T17:16:49.756Z,27.70
2018-01-19T17:18:50.801Z,40.37
2018-01-19T17:20:52.267Z,29.87
2018-01-19T17:22:53.923Z,28.53
2018-01-19T17:24:55.299Z,29.33
2018-01-19T17:26:56.334Z,28.30
2018-01-19T17:28:58.055Z,23.77
2018-01-19T17:30:59.391Z,32.50
2018-01-19T17:33:00.875Z,25.50
2018-01-19T17:35:01.937Z,30.60
2018-01-19T17:37:04.208Z,24.33
2018-01-19T17:39:05.659Z,25.23
2018-01-19T17:41:07.218Z,30.07
2018-01-19T17:43:08.225Z,29.10
2018-01-19T17:45:09.247Z,29.10
2018-01-19T17:47:10.268Z,26.73
2018-01-19T17:49:11.465Z,29.57
2018-01-19T17:51:12.513Z,25.83
2018-01-19T17:53:13.920Z,28.13
2018-01-19T17:55:14.929Z,29.33
2018-01-19T17:57:16.215Z,30.93
2018-01-19T17:59:17.620Z,28.30
2018-01-19T18:01:18.572Z,31.43
2018-01-19T18:03:20.046Z,36.67
2018-01-19T18:05:21.287Z,32.30
2018-01-19T18:07:22.285Z,17.67
2018-01-19T18:09:23.264Z,27.37
2018-01-19T18:11:24.229Z,19.80
2018-01-19T18:13:25.172Z,16.90
2018-01-19T18:15:26.123Z,21.60
2018-01-19T18:17:27.134Z,14.60
2018-01-19T18:19:28.111Z,22.00
2018-01-19T18:21:29.103Z,12.63
2018-01-19T18:23:30.246Z,16.53
2018-01-19T18:25:31.293Z,12.97
2018-01-19T18:27:32.947Z,15.73
2018-01-19T18:29:34.122Z,11.63
2018-01-19T18:31:35.132Z,15.47
2018-01-19T18:33:37.172Z,11.00
2018-01-19T18:35:38.201Z,10.80
2018-01-19T18:37:39.226Z,9.30
2018-01-19T18:39:40.171Z,16.07
2018-01-19T18:41:41.111Z,13.23
2018-01-19T18:43:42.084Z,17.10
2018-01-19T18:45:43.120Z,14.50
2018-01-19T18:47:44.130Z,14.73
2018-01-19T18:49:45.087Z,17.40
2018-01-19T18:51:46.083Z,19.47
2018-01-19T18:53:47.059Z,23.93
2018-01-19T18:55:48.124Z,14.83
2018-01-19T18:57:49.082Z,16.63
2018-01-19T18:59:50.208Z,22.70
2018-01-19T19:01:51.887Z,23.70
2018-01-19T19:03:52.896Z,21.20
2018-01-19T19:05:53.839Z,24.20
2018-01-19T19:07:54.796Z,27.83
2018-01-19T19:10:01.898Z,36.40
2018-01-19T19:12:08.285Z,29.33
2018-01-19T19:14:09.415Z,36.17
2018-01-19T19:16:10.367Z,33.40
2018-01-19T19:18:11.504Z,29.57
2018-01-19T19:20:12.562Z,35.90
2018-01-19T19:22:13.523Z,39.80
2018-01-19T19:24:14.476Z,46.20
2018-01-19T19:26:15.444Z,44.20
2018-01-19T19:28:16.529Z,30.63
2018-01-19T19:30:17.540Z,35.90
2018-01-19T19:32:18.664Z,37.53
2018-01-19T19:34:19.692Z,28.10
2018-01-19T19:36:21.009Z,34.47
2018-01-19T19:38:22.009Z,46.50
2018-01-19T19:40:22.975Z,27.40
2018-01-19T19:42:23.955Z,35.93
2018-01-19T19:44:25.706Z,25.03
2018-01-19T19:46:26.781Z,21.63
2018-01-19T19:48:27.747Z,33.40
2018-01-19T19:50:31.046Z,32.07
2018-01-19T19:52:32.176Z,21.27
2018-01-19T19:54:33.147Z,18.27
2018-01-19T19:56:34.372Z,18.93
2018-01-19T19:58:35.397Z,18.00
2018-01-19T20:00:42.613Z,18.30
2018-01-19T20:02:44.348Z,22.33
2018-01-19T20:04:45.380Z,19.60
2018-01-19T20:06:46.601Z,29.80
2018-01-19T20:08:47.833Z,17.63
2018-01-19T20:10:48.792Z,39.63
2018-01-19T20:12:49.879Z,18.40
2018-01-19T20:14:50.893Z,19.60
2018-01-19T20:16:52.292Z,15.10
2018-01-19T20:18:53.349Z,20.83
2018-01-19T20:20:55.572Z,22.13
2018-01-19T20:22:56.773Z,17.87
2018-01-19T20:24:57.766Z,18.13
2018-01-19T20:26:58.760Z,17.30
2018-01-19T20:29:00.938Z,22.90
2018-01-19T20:31:02.086Z,18.90
2018-01-19T20:33:03.357Z,27.77
2018-01-19T20:35:04.360Z,27.00
2018-01-19T20:37:05.309Z,19.57
2018-01-19T20:39:06.532Z,22.17
2018-01-19T20:41:07.556Z,29.27
2018-01-19T20:43:08.875Z,25.03
2018-01-19T20:45:10.159Z,23.53
2018-01-19T20:47:11.323Z,25.90
2018-01-19T20:49:12.492Z,21.90
2018-01-19T20:51:13.713Z,25.10
2018-01-19T20:53:14.923Z,30.07
2018-01-19T20:55:15.947Z,21.83
2018-01-19T20:57:16.917Z,29.43
2018-01-19T20:59:18.167Z,25.07
2018-01-19T21:01:19.862Z,36.83
2018-01-19T21:03:20.862Z,34.30
2018-01-19T21:05:22.233Z,25.33
2018-01-19T21:07:23.230Z,30.27
2018-01-19T21:09:24.803Z,29.30
2018-01-19T21:11:27.101Z,31.07
2018-01-19T21:13:28.296Z,25.67
2018-01-19T21:15:30.590Z,33.87
2018-01-19T21:17:31.940Z,30.90
2018-01-19T21:19:32.932Z,24.83
2018-01-19T21:21:33.899Z,26.77
2018-01-19T21:23:34.847Z,26.50
2018-01-19T21:25:35.816Z,25.17
2018-01-19T21:27:37.409Z,27.90
2018-01-19T21:29:38.513Z,30.97
2018-01-19T21:31:39.824Z,32.97
2018-01-19T21:33:41.302Z,33.53
2018-01-19T21:35:42.649Z,29.97
2018-01-19T21:37:43.647Z,27.60
2018-01-19T21:39:45.238Z,27.23
2018-01-19T21:41:46.229Z,24.73
2018-01-19T21:43:47.917Z,37.10
2018-01-19T21:45:49.710Z,35.77
2018-01-19T21:47:50.840Z,35.43
2018-01-19T21:49:51.923Z,30.20
2018-01-19T21:51:53.828Z,36.67
2018-01-19T21:53:54.809Z,34.07
2018-01-19T21:55:55.806Z,40.00
2018-01-19T21:57:57.843Z,40.70
2018-01-19T21:59:58.850Z,43.17
2018-01-19T22:02:00.805Z,36.70
2018-01-19T22:04:02.741Z,32.17
2018-01-19T22:06:03.871Z,36.57
2018-01-19T22:08:05.028Z,44.07
2018-01-19T22:10:06.049Z,33.00
2018-01-19T22:12:07.229Z,39.00
2018-01-19T22:14:08.406Z,40.50
2018-01-19T22:16:09.879Z,40.70
2018-01-19T22:18:11.374Z,35.43
2018-01-19T22:20:12.612Z,38.03
2018-01-19T22:22:13.661Z,36.53
2018-01-19T22:24:15.395Z,36.80
2018-01-19T22:26:16.385Z,37.87
2018-01-19T22:28:17.535Z,44.67
2018-01-19T22:30:19.395Z,40.40
2018-01-19T22:32:20.384Z,37.23
2018-01-19T22:34:21.603Z,40.17
2018-01-19T22:36:22.984Z,45.10
2018-01-19T22:38:24.017Z,46.33
2018-01-19T22:40:24.984Z,43.93
2018-01-19T22:42:26.231Z,41.87
2018-01-19T22:44:27.685Z,44.00
2018-01-19T22:46:28.690Z,40.30
2018-01-19T22:48:30.799Z,48.70
2018-01-19T22:50:31.772Z,39.97
2018-01-19T22:52:32.731Z,41.73
2018-01-19T22:54:33.684Z,49.00
2018-01-19T22:56:34.680Z,41.47
2018-01-19T22:58:36.425Z,47.27
2018-01-19T23:00:37.451Z,51.33
2018-01-19T23:02:38.411Z,56.60
2018-01-19T23:04:42.502Z,61.00
2018-01-19T23:06:44.651Z,44.77
2018-01-19T23:08:47.102Z,64.93
2018-01-19T23:10:48.304Z,48.27
2018-01-19T23:12:49.300Z,43.17
2018-01-19T23:14:50.254Z,50.87
2018-01-19T23:17:13.482Z,44.20
2018-01-19T23:19:15.684Z,54.23
2018-01-19T23:21:16.825Z,63.57
2018-01-19T23:23:28.781Z,50.90
2018-01-19T23:25:50.542Z,47.60
2018-01-19T23:27:51.615Z,39.10
2018-01-19T23:29:55.496Z,52.90
2018-01-19T23:34:28.688Z,52.37
2018-01-19T23:36:33.300Z,56.37
2018-01-19T23:38:43.023Z,51.90
2018-01-19T23:40:44.160Z,46.80
2018-01-19T23:42:46.023Z,48.60
2018-01-19T23:44:47.232Z,52.80
2018-01-19T23:46:48.280Z,59.93
2018-01-19T23:48:49.305Z,72.00
2018-01-19T23:50:52.197Z,53.93
2018-01-19T23:52:57.902Z,47.37
2018-01-19T23:55:08.551Z,58.30
2018-01-19T23:57:31.073Z,54.67
2018-01-19T23:59:32.189Z,66.70
